createdAt,value
2018-04-14T00:01:37.204Z,18.02
2018-04-14T00:04:15.096Z,18.35
2018-04-14T00:06:54.807Z,18.23
2018-04-14T00:09:37.095Z,18.49
2018-04-14T00:12:16.143Z,19.55
2018-04-14T00:14:54.632Z,19.48
2018-04-14T00:17:36.999Z,20.78
2018-04-14T00:20:15.185Z,19.64
2018-04-14T00:22:53.362Z,18.85
2018-04-14T00:25:33.865Z,19.47
2018-04-14T00:28:13.056Z,18.77
2018-04-14T00:30:51.709Z,18.27
2018-04-14T00:33:31.580Z,18.56
2018-04-14T00:36:12.261Z,18.82
2018-04-14T00:38:52.584Z,17.94
2018-04-14T00:41:33.309Z,18.35
2018-04-14T00:44:13.451Z,18.47
2018-04-14T00:46:52.646Z,17.82
2018-04-14T00:49:31.205Z,18.04
2018-04-14T00:52:10.955Z,17.26
2018-04-14T00:54:49.396Z,17.50
2018-04-14T00:57:27.937Z,17.78
2018-04-14T01:00:07.297Z,18.34
2018-04-14T01:02:45.390Z,18.14
2018-04-14T01:05:23.667Z,17.66
2018-04-14T01:08:02.966Z,17.71
2018-04-14T01:10:41.906Z,18.04
2018-04-14T01:13:23.278Z,18.59
2018-04-14T01:16:01.574Z,17.35
2018-04-14T01:18:39.278Z,18.02
2018-04-14T01:21:19.971Z,17.10
2018-04-14T01:23:58.143Z,17.46
2018-04-14T01:26:36.440Z,17.76
2018-04-14T01:29:16.558Z,17.57
2018-04-14T01:31:54.584Z,17.31
2018-04-14T01:34:33.239Z,18.87
2018-04-14T01:37:12.004Z,18.67
2018-04-14T01:39:50.645Z,19.33
2018-04-14T01:42:29.547Z,19.75
2018-04-14T01:45:09.399Z,20.26
2018-04-14T01:47:47.740Z,20.59
2018-04-14T01:50:25.924Z,19.91
2018-04-14T01:53:08.224Z,20.47
2018-04-14T01:55:47.405Z,20.92
2018-04-14T01:58:27.483Z,20.53
2018-04-14T02:01:06.244Z,20.03
2018-04-14T02:03:44.305Z,19.32
2018-04-14T02:06:24.752Z,19.59
2018-04-14T02:09:05.118Z,19.24
2018-04-14T02:11:43.761Z,18.50
2018-04-14T02:14:22.702Z,17.75
2018-04-14T02:17:01.106Z,18.64
2018-04-14T02:19:39.792Z,17.97
2018-04-14T02:22:19.224Z,17.86
2018-04-14T02:24:58.192Z,18.09
2018-04-14T02:27:36.521Z,17.33
2018-04-14T02:30:15.025Z,17.02
2018-04-14T02:32:53.285Z,16.85
2018-04-14T02:35:32.434Z,16.81
2018-04-14T02:38:14.236Z,17.39
2018-04-14T02:40:53.127Z,16.43
2018-04-14T02:43:32.954Z,16.48
2018-04-14T02:46:14.926Z,16.51
2018-04-14T02:48:52.958Z,17.41
2018-04-14T02:51:31.703Z,15.92
2018-04-14T02:54:12.657Z,15.35
2018-04-14T02:56:50.883Z,15.39
2018-04-14T02:59:30.660Z,16.03
2018-04-14T03:02:10.418Z,15.45
2018-04-14T03:04:48.616Z,16.12
2018-04-14T03:07:26.653Z,16.95
2018-04-14T03:10:05.204Z,15.75
2018-04-14T03:12:43.395Z,15.68
2018-04-14T03:15:22.157Z,15.34
2018-04-14T03:18:01.823Z,16.48
2018-04-14T03:20:40.006Z,17.64
2018-04-14T03:23:18.805Z,16.62
2018-04-14T03:25:59.537Z,17.23
2018-04-14T03:28:37.902Z,16.02
2018-04-14T03:31:17.034Z,15.79
2018-04-14T03:33:57.930Z,15.71
2018-04-14T03:36:36.009Z,16.50
2018-04-14T03:39:14.172Z,17.87
2018-04-14T03:41:54.267Z,17.93
2018-04-14T03:44:32.360Z,16.94
2018-04-14T03:47:10.414Z,16.66
2018-04-14T03:49:49.468Z,16.40
2018-04-14T03:52:28.004Z,16.05
2018-04-14T03:55:05.911Z,16.18
2018-04-14T03:57:44.883Z,16.14
2018-04-14T04:00:22.974Z,16.30
2018-04-14T04:03:01.754Z,17.62
2018-04-14T04:05:39.884Z,17.68
2018-04-14T04:08:17.896Z,17.11
2018-04-14T04:10:56.047Z,16.72
2018-04-14T04:13:34.686Z,16.85
2018-04-14T04:16:13.354Z,17.33
2018-04-14T04:20:23.933Z,17.25
2018-04-14T04:24:19.295Z,16.15
2018-04-14T04:26:58.064Z,16.49
2018-04-14T04:29:36.181Z,15.68
2018-04-14T04:32:14.643Z,15.94
2018-04-14T04:34:52.568Z,16.29
2018-04-14T04:37:30.720Z,15.63
2018-04-14T04:40:08.929Z,16.51
2018-04-14T04:42:46.766Z,16.67
2018-04-14T04:45:27.723Z,15.97
2018-04-14T04:48:07.112Z,16.33
2018-04-14T04:50:48.748Z,15.46
2018-04-14T04:53:27.101Z,16.14
2018-04-14T04:56:05.880Z,15.46
2018-04-14T04:58:44.681Z,15.54
2018-04-14T05:01:22.440Z,16.07
2018-04-14T05:04:01.106Z,16.59
2018-04-14T05:06:39.139Z,16.18
2018-04-14T05:09:18.185Z,15.83
2018-04-14T05:11:56.769Z,15.94
2018-04-14T05:14:35.368Z,15.83
2018-04-14T05:17:13.172Z,16.08
2018-04-14T05:19:51.445Z,16.20
2018-04-14T05:22:33.371Z,15.53
2018-04-14T05:25:11.149Z,14.87
2018-04-14T05:27:49.004Z,14.88
2018-04-14T05:30:28.523Z,15.51
2018-04-14T05:33:07.870Z,15.49
2018-04-14T05:35:46.352Z,16.04
2018-04-14T05:38:25.598Z,15.71
2018-04-14T05:41:03.182Z,15.97
2018-04-14T05:43:40.807Z,16.36
2018-04-14T05:46:19.713Z,16.19
2018-04-14T05:48:57.509Z,16.54
2018-04-14T05:51:35.165Z,16.15
2018-04-14T05:54:17.715Z,15.96
2018-04-14T05:56:55.984Z,16.02
2018-04-14T05:59:35.172Z,15.90
2018-04-14T06:02:18.569Z,16.90
2018-04-14T06:04:56.429Z,16.08
2018-04-14T06:07:36.968Z,16.21
2018-04-14T06:10:15.714Z,15.88
2018-04-14T06:12:55.096Z,16.04
2018-04-14T06:15:37.283Z,16.11
2018-04-14T06:18:16.997Z,16.05
2018-04-14T06:20:56.411Z,16.02
2018-04-14T06:23:39.027Z,16.15
2018-04-14T06:26:19.789Z,15.15
2018-04-14T06:28:58.568Z,15.36
2018-04-14T06:31:41.007Z,15.48
2018-04-14T06:34:20.941Z,14.90
2018-04-14T06:36:59.793Z,14.73
2018-04-14T06:39:42.834Z,15.02
2018-04-14T06:42:21.297Z,15.35
2018-04-14T06:45:00.888Z,14.87
2018-04-14T06:51:28.142Z,14.94
2018-04-14T06:54:16.393Z,15.41
2018-04-14T06:57:00.892Z,15.22
2018-04-14T06:59:42.274Z,14.74
2018-04-14T07:02:26.007Z,14.93
2018-04-14T07:05:05.833Z,14.28
2018-04-14T07:07:46.206Z,13.88
2018-04-14T07:10:24.183Z,14.13
2018-04-14T07:13:06.663Z,13.67
2018-04-14T07:15:46.493Z,13.70
2018-04-14T07:18:25.041Z,13.83
2018-04-14T07:21:07.664Z,12.97
2018-04-14T07:23:46.429Z,13.21
2018-04-14T07:26:28.957Z,14.77
2018-04-14T07:29:07.813Z,13.83
2018-04-14T07:31:46.431Z,13.96
2018-04-14T07:34:29.179Z,14.66
2018-04-14T07:37:06.971Z,13.95
2018-04-14T07:39:50.544Z,14.01
2018-04-14T07:42:31.203Z,14.71
2018-04-14T07:45:12.869Z,15.01
2018-04-14T07:47:51.911Z,14.34
2018-04-14T07:50:33.855Z,14.38
2018-04-14T07:53:13.155Z,13.57
2018-04-14T07:55:55.167Z,13.47
2018-04-14T07:58:34.403Z,13.76
2018-04-14T08:01:17.006Z,14.62
2018-04-14T08:03:57.188Z,13.98
2018-04-14T08:06:38.969Z,13.67
2018-04-14T08:09:18.734Z,13.05
2018-04-14T08:12:04.330Z,13.25
2018-04-14T08:14:47.145Z,12.95
2018-04-14T08:17:33.433Z,13.07
2018-04-14T08:20:12.953Z,13.66
2018-04-14T08:22:56.059Z,13.90
2018-04-14T08:25:35.907Z,13.84
2018-04-14T08:28:17.779Z,13.98
2018-04-14T08:30:58.686Z,13.11
2018-04-14T08:33:37.314Z,13.47
2018-04-14T08:36:15.018Z,13.38
2018-04-14T08:38:53.813Z,13.03
2018-04-14T08:41:35.716Z,12.39
2018-04-14T08:44:15.181Z,12.66
2018-04-14T08:46:54.068Z,12.96
2018-04-14T08:49:35.048Z,13.25
2018-04-14T08:52:14.903Z,13.15
2018-04-14T08:54:57.447Z,12.46
2018-04-14T08:57:36.494Z,12.16
2018-04-14T09:00:18.769Z,12.98
2018-04-14T09:02:57.850Z,13.70
2018-04-14T09:05:37.602Z,12.98
2018-04-14T09:08:23.101Z,12.59
2018-04-14T09:11:02.443Z,11.98
2018-04-14T09:13:39.963Z,12.38
2018-04-14T09:16:20.028Z,12.41
2018-04-14T09:19:01.300Z,11.78
2018-04-14T09:21:40.101Z,11.89
2018-04-14T09:24:21.179Z,12.25
2018-04-14T09:26:59.568Z,12.13
2018-04-14T09:29:39.422Z,12.65
2018-04-14T09:32:22.803Z,12.26
2018-04-14T09:35:07.647Z,12.15
2018-04-14T09:37:46.210Z,12.34
2018-04-14T09:40:27.166Z,12.26
2018-04-14T09:43:06.022Z,12.17
2018-04-14T09:45:45.616Z,11.77
2018-04-14T09:48:25.021Z,11.78
2018-04-14T09:51:03.765Z,11.69
2018-04-14T09:53:45.301Z,12.05
2018-04-14T09:56:24.181Z,11.72
2018-04-14T09:59:02.901Z,12.12
2018-04-14T10:01:46.843Z,11.44
2018-04-14T10:04:25.029Z,11.61
2018-04-14T10:07:06.909Z,11.70
2018-04-14T10:09:44.945Z,11.21
2018-04-14T10:12:26.534Z,11.88
2018-04-14T10:15:05.777Z,12.08
2018-04-14T10:17:45.808Z,12.06
2018-04-14T10:20:26.930Z,12.61
2018-04-14T10:23:10.518Z,12.20
2018-04-14T10:25:48.541Z,11.90
2018-04-14T10:28:27.287Z,11.98
2018-04-14T10:31:07.986Z,11.52
2018-04-14T10:33:47.736Z,11.08
2018-04-14T10:36:27.880Z,11.91
2018-04-14T10:39:11.421Z,10.79
2018-04-14T10:41:55.242Z,10.93
2018-04-14T10:44:33.201Z,10.87
2018-04-14T10:47:14.857Z,10.10
2018-04-14T10:49:53.219Z,10.25
2018-04-14T10:52:30.970Z,10.92
2018-04-14T10:55:12.744Z,10.00
2018-04-14T10:57:51.064Z,9.36
2018-04-14T11:00:31.146Z,9.78
2018-04-14T11:03:13.251Z,9.53
2018-04-14T11:05:52.625Z,9.31
2018-04-14T11:08:31.869Z,9.47
2018-04-14T11:11:17.617Z,8.99
2018-04-14T11:13:56.221Z,9.05
2018-04-14T11:16:34.068Z,9.38
2018-04-14T11:19:15.093Z,9.40
2018-04-14T11:21:54.378Z,9.46
2018-04-14T11:24:33.026Z,8.65
2018-04-14T11:27:15.934Z,9.00
2018-04-14T11:29:54.049Z,8.52
2018-04-14T11:32:34.249Z,8.81
2018-04-14T11:35:14.683Z,8.87
2018-04-14T11:37:57.767Z,8.71
2018-04-14T11:40:36.929Z,9.01
2018-04-14T11:43:16.252Z,8.39
2018-04-14T11:45:58.320Z,7.88
2018-04-14T11:48:36.399Z,8.43
2018-04-14T11:51:20.752Z,8.08
2018-04-14T11:53:58.976Z,8.32
2018-04-14T11:56:38.184Z,8.82
2018-04-14T11:59:20.106Z,8.48
2018-04-14T12:01:59.629Z,8.68
2018-04-14T12:04:37.878Z,7.86
2018-04-14T12:07:20.900Z,7.29
2018-04-14T12:10:00.633Z,8.89
2018-04-14T12:12:40.056Z,8.61
2018-04-14T12:15:21.347Z,8.28
2018-04-14T12:18:02.838Z,8.98
2018-04-14T12:20:48.472Z,9.29
2018-04-14T12:23:27.322Z,9.43
2018-04-14T12:26:06.689Z,7.60
2018-04-14T12:28:48.039Z,8.31
2018-04-14T12:31:27.460Z,8.77
2018-04-14T12:34:07.186Z,8.17
2018-04-14T12:36:47.705Z,7.65
2018-04-14T12:39:27.266Z,7.79
2018-04-14T12:42:05.694Z,7.47
2018-04-14T12:44:47.234Z,8.35
2018-04-14T12:47:27.688Z,7.83
2018-04-14T12:50:06.248Z,7.30
2018-04-14T12:52:49.755Z,7.92
2018-04-14T12:55:28.408Z,7.41
2018-04-14T12:58:06.624Z,7.91
2018-04-14T13:00:49.070Z,8.05
2018-04-14T13:03:27.317Z,7.78
2018-04-14T13:06:08.642Z,7.52
2018-04-14T13:08:47.484Z,7.71
2018-04-14T13:11:26.417Z,8.01
2018-04-14T13:14:10.864Z,7.80
2018-04-14T13:16:48.595Z,7.08
2018-04-14T13:19:27.196Z,6.59
2018-04-14T13:22:08.297Z,7.04
2018-04-14T13:24:49.437Z,7.46
2018-04-14T13:27:28.087Z,6.78
2018-04-14T13:30:11.434Z,6.47
2018-04-14T13:32:49.501Z,7.37
2018-04-14T13:35:32.384Z,7.14
2018-04-14T13:38:10.905Z,7.46
2018-04-14T13:40:54.830Z,7.38
2018-04-14T13:43:33.193Z,7.03
2018-04-14T13:46:13.796Z,6.80
2018-04-14T13:48:59.644Z,7.65
2018-04-14T13:51:49.648Z,7.70
2018-04-14T13:54:32.317Z,7.27
2018-04-14T13:57:12.220Z,7.14
2018-04-14T13:59:51.841Z,7.97
2018-04-14T14:02:31.835Z,6.92
2018-04-14T14:05:14.487Z,7.19
2018-04-14T14:07:52.831Z,6.64
2018-04-14T14:10:32.976Z,6.90
2018-04-14T14:13:14.381Z,7.54
2018-04-14T14:15:54.027Z,7.36
2018-04-14T14:18:36.777Z,7.18
2018-04-14T14:21:16.450Z,6.97
2018-04-14T14:23:59.934Z,6.91
2018-04-14T14:26:38.173Z,6.33
2018-04-14T14:29:16.595Z,6.57
2018-04-14T14:31:58.924Z,6.23
2018-04-14T14:34:37.024Z,6.38
2018-04-14T14:37:20.004Z,6.40
2018-04-14T14:39:57.933Z,6.28
2018-04-14T14:42:37.658Z,6.69
2018-04-14T14:45:17.540Z,6.94
2018-04-14T14:47:59.531Z,6.75
2018-04-14T14:50:39.653Z,5.96
2018-04-14T14:53:19.751Z,5.93
2018-04-14T14:55:58.480Z,5.96
2018-04-14T14:58:40.630Z,5.71
2018-04-14T15:01:20.642Z,6.66
2018-04-14T15:03:58.635Z,6.48
2018-04-14T15:06:40.730Z,5.95
2018-04-14T15:09:21.488Z,7.06
2018-04-14T15:11:59.316Z,6.71
2018-04-14T15:14:43.638Z,7.04
2018-04-14T15:17:21.737Z,6.91
2018-04-14T15:20:01.201Z,6.50
2018-04-14T15:22:46.432Z,6.90
2018-04-14T15:25:24.579Z,6.87
2018-04-14T15:28:02.608Z,6.59
2018-04-14T15:30:45.881Z,6.29
2018-04-14T15:33:25.164Z,6.22
2018-04-14T15:36:07.586Z,5.98
2018-04-14T15:38:46.092Z,6.01
2018-04-14T15:41:23.988Z,6.34
2018-04-14T15:44:04.871Z,6.21
2018-04-14T15:46:48.423Z,5.88
2018-04-14T15:49:26.381Z,6.93
2018-04-14T15:52:04.531Z,6.93
2018-04-14T15:54:48.435Z,6.23
2018-04-14T15:57:26.588Z,6.95
2018-04-14T16:00:06.651Z,6.58
2018-04-14T16:02:51.486Z,6.27
2018-04-14T16:05:30.931Z,5.89
2018-04-14T16:08:14.775Z,5.73
2018-04-14T16:10:53.438Z,5.93
2018-04-14T16:13:31.621Z,6.22
2018-04-14T16:16:13.211Z,6.37
2018-04-14T16:18:51.493Z,6.40
2018-04-14T16:21:30.371Z,6.02
2018-04-14T16:24:09.277Z,6.08
2018-04-14T16:26:53.317Z,6.22
2018-04-14T16:29:31.492Z,5.81
2018-04-14T16:32:11.916Z,5.15
2018-04-14T16:34:52.353Z,5.55
2018-04-14T16:37:35.915Z,4.89
2018-04-14T16:40:13.909Z,3.89
2018-04-14T16:42:51.973Z,3.56
2018-04-14T16:45:33.277Z,3.24
2018-04-14T16:48:11.277Z,3.18
2018-04-14T16:50:49.362Z,3.56
2018-04-14T16:53:31.371Z,3.27
2018-04-14T16:56:10.467Z,2.82
2018-04-14T16:58:52.796Z,2.54
2018-04-14T17:01:35.535Z,3.05
2018-04-14T17:04:15.310Z,3.69
2018-04-14T17:06:59.498Z,3.42
2018-04-14T17:09:37.698Z,3.23
2018-04-14T17:12:19.295Z,3.75
2018-04-14T17:15:01.467Z,3.46
2018-04-14T17:17:40.185Z,3.50
2018-04-14T17:20:19.642Z,3.53
2018-04-14T17:23:00.640Z,4.20
2018-04-14T17:25:43.753Z,4.92
2018-04-14T17:28:23.250Z,4.92
2018-04-14T17:31:14.439Z,5.31
2018-04-14T17:33:57.112Z,5.72
2018-04-14T17:36:37.698Z,5.54
2018-04-14T17:39:18.357Z,6.21
2018-04-14T17:41:58.066Z,6.80
2018-04-14T17:44:41.038Z,6.85
2018-04-14T17:47:20.439Z,7.45
2018-04-14T17:49:59.769Z,7.27
2018-04-14T17:52:39.379Z,7.47
2018-04-14T17:55:22.084Z,7.74
2018-04-14T17:58:00.907Z,8.15
2018-04-14T18:00:41.527Z,8.35
2018-04-14T18:03:23.517Z,8.44
2018-04-14T18:06:02.827Z,8.33
2018-04-14T18:08:52.042Z,8.85
2018-04-14T18:11:30.021Z,8.61
2018-04-14T18:14:09.750Z,8.58
2018-04-14T18:16:48.707Z,8.96
2018-04-14T18:19:26.971Z,8.78
2018-04-14T18:22:07.746Z,9.00
2018-04-14T18:24:46.987Z,9.01
2018-04-14T18:27:24.953Z,9.39
2018-04-14T18:30:07.372Z,9.50
2018-04-14T18:32:45.766Z,9.72
2018-04-14T18:35:25.986Z,10.11
2018-04-14T18:38:08.515Z,10.29
2018-04-14T18:40:48.102Z,10.04
2018-04-14T18:43:26.796Z,10.57
2018-04-14T18:46:10.279Z,10.40
2018-04-14T18:48:48.361Z,10.67
2018-04-14T18:51:27.277Z,10.68
2018-04-14T18:54:10.029Z,10.89
2018-04-14T18:56:49.604Z,10.89
2018-04-14T18:59:28.619Z,11.30
2018-04-14T19:02:11.187Z,11.21
2018-04-14T19:04:49.791Z,11.13
2018-04-14T19:07:29.534Z,11.25
2018-04-14T19:10:11.419Z,11.25
2018-04-14T19:12:49.504Z,11.51
2018-04-14T19:15:29.526Z,11.94
2018-04-14T19:18:12.423Z,12.46
2018-04-14T19:20:50.692Z,12.14
2018-04-14T19:23:32.160Z,11.97
2018-04-14T19:26:17.851Z,11.79
2018-04-14T19:28:56.125Z,11.99
2018-04-14T19:31:36.053Z,12.53
2018-04-14T19:34:14.332Z,12.49
2018-04-14T19:36:53.456Z,12.56
2018-04-14T19:39:36.233Z,12.45
2018-04-14T19:42:14.474Z,12.64
2018-04-14T19:44:55.778Z,12.76
2018-04-14T19:47:35.059Z,12.74
2018-04-14T19:50:14.095Z,12.74
2018-04-14T19:52:56.599Z,12.82
2018-04-14T19:55:35.075Z,12.90
2018-04-14T19:58:15.205Z,13.37
2018-04-14T20:00:58.390Z,13.58
2018-04-14T20:03:37.870Z,13.47
2018-04-14T20:06:15.957Z,13.22
2018-04-14T20:08:56.639Z,13.59
2018-04-14T20:11:37.839Z,13.77
2018-04-14T20:14:19.700Z,13.10
2018-04-14T20:17:01.938Z,12.99
2018-04-14T20:19:41.044Z,12.91
2018-04-14T20:22:21.393Z,13.03
2018-04-14T20:24:59.984Z,13.51
2018-04-14T20:27:39.421Z,13.50
2018-04-14T20:30:22.203Z,13.38
2018-04-14T20:33:00.924Z,13.02
2018-04-14T20:35:40.077Z,12.93
2018-04-14T20:38:22.658Z,13.28
2018-04-14T20:41:01.878Z,13.11
2018-04-14T20:43:41.335Z,12.96
2018-04-14T20:46:24.913Z,13.39
2018-04-14T20:49:03.045Z,13.44
2018-04-14T20:51:42.036Z,13.87
2018-04-14T20:54:24.614Z,13.84
2018-04-14T20:57:02.608Z,14.12
2018-04-14T20:59:43.811Z,14.78
2018-04-14T21:02:24.233Z,14.17
2018-04-14T21:05:06.636Z,13.97
2018-04-14T21:07:47.910Z,13.92
2018-04-14T21:10:29.148Z,13.66
2018-04-14T21:13:11.276Z,13.60
2018-04-14T21:15:54.048Z,14.16
2018-04-14T21:18:35.487Z,14.41
2018-04-14T21:24:05.475Z,13.82
2018-04-14T21:26:49.914Z,14.34
2018-04-14T21:29:31.645Z,14.10
2018-04-14T21:32:13.511Z,14.13
2018-04-14T21:34:54.803Z,14.19
2018-04-14T21:37:36.765Z,14.22
2018-04-14T21:40:18.317Z,14.67
2018-04-14T21:45:49.854Z,14.52
2018-04-14T21:48:33.076Z,14.72
2018-04-14T21:51:15.290Z,14.34
2018-04-14T21:53:57.505Z,14.35
2018-04-14T21:56:39.050Z,14.48
2018-04-14T21:59:19.827Z,14.49
2018-04-14T22:02:07.248Z,15.15
2018-04-14T22:04:51.441Z,14.90
2018-04-14T22:07:33.784Z,14.56
2018-04-14T22:10:13.009Z,14.81
2018-04-14T22:12:55.160Z,14.70
2018-04-14T22:15:33.966Z,14.58
2018-04-14T22:18:12.294Z,14.32
2018-04-14T22:20:55.347Z,14.41
2018-04-14T22:23:33.613Z,14.63
2018-04-14T22:26:13.281Z,14.33
2018-04-14T22:28:55.819Z,14.73
2018-04-14T22:31:34.951Z,14.69
2018-04-14T22:34:15.278Z,14.59
2018-04-14T22:36:54.909Z,15.12
2018-04-14T22:39:35.182Z,14.98
2018-04-14T22:42:17.183Z,14.98
2018-04-14T22:44:55.836Z,14.77
2018-04-14T22:47:35.694Z,14.91
2018-04-14T22:50:17.965Z,14.83
2018-04-14T22:52:56.562Z,15.50
2018-04-14T22:55:39.110Z,14.97
2018-04-14T22:58:17.243Z,14.68
2018-04-14T23:00:56.900Z,14.83
2018-04-14T23:03:38.552Z,14.66
2018-04-14T23:06:16.458Z,14.71
2018-04-14T23:08:54.559Z,14.84
2018-04-14T23:11:33.777Z,14.94
2018-04-14T23:14:11.917Z,14.99
2018-04-14T23:16:49.840Z,15.47
2018-04-14T23:19:29.185Z,15.47
2018-04-14T23:22:08.397Z,15.17
2018-04-14T23:24:47.658Z,15.07
2018-04-14T23:27:25.864Z,15.13
2018-04-14T23:30:03.457Z,14.95
2018-04-14T23:32:41.810Z,14.94
2018-04-14T23:35:23.713Z,15.08
2018-04-14T23:38:02.649Z,15.24
2018-04-14T23:40:42.312Z,15.21
2018-04-14T23:43:24.653Z,15.57
2018-04-14T23:46:03.101Z,14.99
2018-04-14T23:48:41.882Z,14.91
2018-04-14T23:51:24.978Z,14.96
2018-04-14T23:54:03.067Z,15.56
2018-04-14T23:56:40.932Z,15.65
2018-04-14T23:59:20.509Z,15.52
